KHOT/HOT METAR and TAF weather

Enter ICAO airport designator
Station Type Date Time Source
KHOT METAR 2023/02/05 14:53 UTC NOAA

KHOT 051453Z AUTO 25010G16KT 10SM CLR 08/04 A3020 RMK AO2 SLP226 T00830039 53004


Station Type Date Time Source
KHOT Decoded METAR 2023/02/05 14:53 UTC NOAA

HOT SPRINGS MEMORIAL FIELD, AR, United States (KHOT) 34-29N 093-06W 162M
Feb 05, 2023 - 09:53 AM EST / 2023.02.05 1453 UTC
Wind: from the WSW (250 degrees) at 12 MPH (10 KT) gusting to 18 MPH (16 KT):0
Visibility: 10 mile(s):0
Sky conditions: clear
Temperature: 46.9 F (8.3 C)
Dew Point: 39.0 F (3.9 C)
Relative Humidity: 73%
Pressure (altimeter): 30.2 in. Hg (1022 hPa)
Pressure tendency: 0.01 inches (0.4 hPa) higher than three hours ago
ob: KHOT 051453Z AUTO 25010G16KT 10SM CLR 08/04 A3020 RMK AO2 SLP226 T00830039 53004
cycle: 15

Station Type Date Time Source
KHOT TAF 2023/02/05 12:24 UTC NOAA

TAF KHOT 051123Z 0512/0612 24004KT P6SM SCT250
FM060000 VRB04KT P6SM SCT250

Example: see airport list